sensor_id;sensor_type;location;lat;lon;timestamp;temperature;humidity
27922;DHT22;15261;50.356;10.340;2023-04-15T00:00:15;4.60;99.90
27922;DHT22;15261;50.356;10.340;2023-04-15T00:02:42;4.70;99.90
27922;DHT22;15261;50.356;10.340;2023-04-15T00:05:16;4.80;99.90
27922;DHT22;15261;50.356;10.340;2023-04-15T00:07:42;4.80;99.90
27922;DHT22;15261;50.356;10.340;2023-04-15T00:10:08;4.80;99.90
27922;DHT22;15261;50.356;10.340;2023-04-15T00:12:33;4.80;99.90
27922;DHT22;15261;50.356;10.340;2023-04-15T00:14:59;4.90;99.90
27922;DHT22;15261;50.356;10.340;2023-04-15T00:17:24;4.90;99.90
27922;DHT22;15261;50.356;10.340;2023-04-15T00:19:50;4.80;99.90
27922;DHT22;15261;50.356;10.340;2023-04-15T00:22:15;4.80;99.90
27922;DHT22;15261;50.356;10.340;2023-04-15T00:24:42;4.80;99.90
27922;DHT22;15261;50.356;10.340;2023-04-15T00:27:08;4.90;99.90
27922;DHT22;15261;50.356;10.340;2023-04-15T00:29:33;4.90;99.90
27922;DHT22;15261;50.356;10.340;2023-04-15T00:31:59;4.90;99.90
27922;DHT22;15261;50.356;10.340;2023-04-15T00:34:26;5.00;99.90
27922;DHT22;15261;50.356;10.340;2023-04-15T00:36:52;4.90;99.90
27922;DHT22;15261;50.356;10.340;2023-04-15T00:39:18;5.00;99.90
27922;DHT22;15261;50.356;10.340;2023-04-15T00:41:45;5.00;99.90
27922;DHT22;15261;50.356;10.340;2023-04-15T00:44:11;4.80;99.90
27922;DHT22;15261;50.356;10.340;2023-04-15T00:46:38;4.60;99.90
27922;DHT22;15261;50.356;10.340;2023-04-15T00:49:05;4.60;99.90
27922;DHT22;15261;50.356;10.340;2023-04-15T00:51:32;4.60;99.90
27922;DHT22;15261;50.356;10.340;2023-04-15T00:54:02;4.60;99.90
27922;DHT22;15261;50.356;10.340;2023-04-15T00:56:28;4.70;99.90
27922;DHT22;15261;50.356;10.340;2023-04-15T00:58:55;4.80;99.90
27922;DHT22;15261;50.356;10.340;2023-04-15T01:27:34;5.10;99.90
27922;DHT22;15261;50.356;10.340;2023-04-15T01:37:06;5.40;99.90
27922;DHT22;15261;50.356;10.340;2023-04-15T01:46:17;5.40;99.90
27922;DHT22;15261;50.356;10.340;2023-04-15T01:48:43;5.50;99.90
27922;DHT22;15261;50.356;10.340;2023-04-15T01:51:09;5.40;99.90
27922;DHT22;15261;50.356;10.340;2023-04-15T01:53:34;5.50;99.90
27922;DHT22;15261;50.356;10.340;2023-04-15T01:56:00;5.40;99.90
27922;DHT22;15261;50.356;10.340;2023-04-15T01:58:25;5.30;99.90
27922;DHT22;15261;50.356;10.340;2023-04-15T02:00:51;5.30;99.90
27922;DHT22;15261;50.356;10.340;2023-04-15T02:03:17;5.40;99.90
27922;DHT22;15261;50.356;10.340;2023-04-15T02:05:43;5.40;99.90
27922;DHT22;15261;50.356;10.340;2023-04-15T02:08:09;5.40;99.90
27922;DHT22;15261;50.356;10.340;2023-04-15T02:10:34;5.50;99.90
27922;DHT22;15261;50.356;10.340;2023-04-15T02:13:00;5.50;99.90
27922;DHT22;15261;50.356;10.340;2023-04-15T02:15:26;5.60;99.90
27922;DHT22;15261;50.356;10.340;2023-04-15T02:17:52;5.50;99.90
27922;DHT22;15261;50.356;10.340;2023-04-15T02:20:20;5.60;99.90
27922;DHT22;15261;50.356;10.340;2023-04-15T02:22:46;5.50;99.90
27922;DHT22;15261;50.356;10.340;2023-04-15T02:25:12;5.60;99.90
27922;DHT22;15261;50.356;10.340;2023-04-15T02:27:38;5.70;99.90
27922;DHT22;15261;50.356;10.340;2023-04-15T02:30:04;5.70;99.90
27922;DHT22;15261;50.356;10.340;2023-04-15T02:32:31;5.60;99.90
27922;DHT22;15261;50.356;10.340;2023-04-15T02:35:02;5.60;99.90
27922;DHT22;15261;50.356;10.340;2023-04-15T02:37:28;5.70;99.90
27922;DHT22;15261;50.356;10.340;2023-04-15T02:39:54;5.60;99.90
27922;DHT22;15261;50.356;10.340;2023-04-15T02:42:20;5.60;99.90
27922;DHT22;15261;50.356;10.340;2023-04-15T02:44:46;5.50;99.90
27922;DHT22;15261;50.356;10.340;2023-04-15T02:47:12;5.50;99.90
27922;DHT22;15261;50.356;10.340;2023-04-15T02:49:38;5.50;99.90
27922;DHT22;15261;50.356;10.340;2023-04-15T02:52:04;5.60;99.90
27922;DHT22;15261;50.356;10.340;2023-04-15T02:54:30;5.50;99.90
27922;DHT22;15261;50.356;10.340;2023-04-15T02:56:58;5.60;99.90
27922;DHT22;15261;50.356;10.340;2023-04-15T02:59:24;5.60;99.90
27922;DHT22;15261;50.356;10.340;2023-04-15T03:01:49;5.60;99.90
27922;DHT22;15261;50.356;10.340;2023-04-15T03:04:15;5.60;99.90
27922;DHT22;15261;50.356;10.340;2023-04-15T03:06:41;5.50;99.90
27922;DHT22;15261;50.356;10.340;2023-04-15T03:09:07;5.50;99.90
27922;DHT22;15261;50.356;10.340;2023-04-15T03:11:32;5.50;99.90
27922;DHT22;15261;50.356;10.340;2023-04-15T03:13:59;5.40;99.90
27922;DHT22;15261;50.356;10.340;2023-04-15T03:16:25;5.40;99.90
27922;DHT22;15261;50.356;10.340;2023-04-15T03:18:50;5.50;99.90
27922;DHT22;15261;50.356;10.340;2023-04-15T03:21:16;5.40;99.90
27922;DHT22;15261;50.356;10.340;2023-04-15T03:23:42;5.40;99.90
27922;DHT22;15261;50.356;10.340;2023-04-15T03:26:07;5.40;99.90
27922;DHT22;15261;50.356;10.340;2023-04-15T03:28:33;5.30;99.90
27922;DHT22;15261;50.356;10.340;2023-04-15T03:30:59;5.30;99.90
27922;DHT22;15261;50.356;10.340;2023-04-15T03:33:24;5.40;99.90
27922;DHT22;15261;50.356;10.340;2023-04-15T03:35:51;5.40;99.90
27922;DHT22;15261;50.356;10.340;2023-04-15T03:38:17;5.40;99.90
27922;DHT22;15261;50.356;10.340;2023-04-15T03:40:44;5.50;99.90
27922;DHT22;15261;50.356;10.340;2023-04-15T03:43:10;5.50;99.90
27922;DHT22;15261;50.356;10.340;2023-04-15T03:45:36;5.50;99.90
27922;DHT22;15261;50.356;10.340;2023-04-15T03:48:02;5.50;99.90
27922;DHT22;15261;50.356;10.340;2023-04-15T03:50:28;5.50;99.90
27922;DHT22;15261;50.356;10.340;2023-04-15T03:52:53;5.40;99.90
27922;DHT22;15261;50.356;10.340;2023-04-15T03:55:19;5.30;99.90
27922;DHT22;15261;50.356;10.340;2023-04-15T03:57:45;5.40;99.90
27922;DHT22;15261;50.356;10.340;2023-04-15T04:00:11;5.30;99.90
27922;DHT22;15261;50.356;10.340;2023-04-15T04:02:36;5.20;99.90
27922;DHT22;15261;50.356;10.340;2023-04-15T04:05:02;5.20;99.90
27922;DHT22;15261;50.356;10.340;2023-04-15T04:07:28;5.00;99.90
27922;DHT22;15261;50.356;10.340;2023-04-15T04:09:56;4.90;99.90
27922;DHT22;15261;50.356;10.340;2023-04-15T04:12:21;4.90;99.90
27922;DHT22;15261;50.356;10.340;2023-04-15T04:14:47;4.90;99.90
27922;DHT22;15261;50.356;10.340;2023-04-15T04:17:13;4.90;99.90
27922;DHT22;15261;50.356;10.340;2023-04-15T04:19:38;4.90;99.90
27922;DHT22;15261;50.356;10.340;2023-04-15T04:22:04;4.90;99.90
27922;DHT22;15261;50.356;10.340;2023-04-15T04:24:30;5.00;99.90
27922;DHT22;15261;50.356;10.340;2023-04-15T04:26:56;5.00;99.90
27922;DHT22;15261;50.356;10.340;2023-04-15T04:29:22;5.00;99.90
27922;DHT22;15261;50.356;10.340;2023-04-15T04:31:48;5.00;99.90
27922;DHT22;15261;50.356;10.340;2023-04-15T04:34:14;5.20;99.90
27922;DHT22;15261;50.356;10.340;2023-04-15T04:36:40;5.30;99.90
27922;DHT22;15261;50.356;10.340;2023-04-15T04:39:05;5.40;99.90
27922;DHT22;15261;50.356;10.340;2023-04-15T04:41:31;5.50;99.90
27922;DHT22;15261;50.356;10.340;2023-04-15T04:43:57;5.20;99.90
27922;DHT22;15261;50.356;10.340;2023-04-15T04:46:22;5.10;99.90
27922;DHT22;15261;50.356;10.340;2023-04-15T04:48:48;5.30;99.90
27922;DHT22;15261;50.356;10.340;2023-04-15T04:51:14;5.40;99.90
27922;DHT22;15261;50.356;10.340;2023-04-15T04:53:40;5.50;99.90
27922;DHT22;15261;50.356;10.340;2023-04-15T04:56:07;5.60;99.90
27922;DHT22;15261;50.356;10.340;2023-04-15T04:58:33;5.70;99.90
27922;DHT22;15261;50.356;10.340;2023-04-15T05:01:02;5.60;99.90
27922;DHT22;15261;50.356;10.340;2023-04-15T05:03:28;5.70;99.90
27922;DHT22;15261;50.356;10.340;2023-04-15T05:05:53;5.80;99.90
27922;DHT22;15261;50.356;10.340;2023-04-15T05:08:19;5.80;99.90
27922;DHT22;15261;50.356;10.340;2023-04-15T05:10:45;5.90;99.90
27922;DHT22;15261;50.356;10.340;2023-04-15T05:13:10;5.90;99.90
27922;DHT22;15261;50.356;10.340;2023-04-15T05:15:36;5.90;99.90
27922;DHT22;15261;50.356;10.340;2023-04-15T05:18:04;6.00;99.90
27922;DHT22;15261;50.356;10.340;2023-04-15T05:20:30;6.10;99.90
27922;DHT22;15261;50.356;10.340;2023-04-15T05:22:55;6.10;99.90
27922;DHT22;15261;50.356;10.340;2023-04-15T05:25:21;6.20;99.90
27922;DHT22;15261;50.356;10.340;2023-04-15T05:27:46;6.20;99.90
27922;DHT22;15261;50.356;10.340;2023-04-15T05:30:12;6.20;99.90
27922;DHT22;15261;50.356;10.340;2023-04-15T05:32:37;6.30;99.90
27922;DHT22;15261;50.356;10.340;2023-04-15T05:35:03;6.30;99.90
27922;DHT22;15261;50.356;10.340;2023-04-15T05:37:29;6.30;99.90
27922;DHT22;15261;50.356;10.340;2023-04-15T05:39:55;6.40;99.90
27922;DHT22;15261;50.356;10.340;2023-04-15T05:42:21;6.40;99.90
27922;DHT22;15261;50.356;10.340;2023-04-15T05:44:46;6.40;99.90
27922;DHT22;15261;50.356;10.340;2023-04-15T05:47:12;6.40;99.90
27922;DHT22;15261;50.356;10.340;2023-04-15T05:49:37;6.50;99.90
27922;DHT22;15261;50.356;10.340;2023-04-15T05:52:03;6.60;99.90
27922;DHT22;15261;50.356;10.340;2023-04-15T05:54:29;6.60;99.90
27922;DHT22;15261;50.356;10.340;2023-04-15T05:56:54;6.70;99.90
27922;DHT22;15261;50.356;10.340;2023-04-15T05:59:21;6.80;99.90
27922;DHT22;15261;50.356;10.340;2023-04-15T06:01:47;6.90;99.90
27922;DHT22;15261;50.356;10.340;2023-04-15T06:04:13;6.90;99.90
27922;DHT22;15261;50.356;10.340;2023-04-15T06:06:39;6.90;99.90
27922;DHT22;15261;50.356;10.340;2023-04-15T06:09:05;7.00;99.90
27922;DHT22;15261;50.356;10.340;2023-04-15T06:11:31;7.00;99.90
27922;DHT22;15261;50.356;10.340;2023-04-15T06:13:56;6.90;99.90
27922;DHT22;15261;50.356;10.340;2023-04-15T06:16:22;6.90;99.90
27922;DHT22;15261;50.356;10.340;2023-04-15T06:18:48;6.90;99.90
27922;DHT22;15261;50.356;10.340;2023-04-15T06:21:14;6.90;99.90
27922;DHT22;15261;50.356;10.340;2023-04-15T06:23:40;7.00;99.90
27922;DHT22;15261;50.356;10.340;2023-04-15T06:26:06;7.10;99.90
27922;DHT22;15261;50.356;10.340;2023-04-15T06:28:32;7.10;99.90
27922;DHT22;15261;50.356;10.340;2023-04-15T06:30:58;7.20;99.90
27922;DHT22;15261;50.356;10.340;2023-04-15T06:33:23;7.20;99.90
27922;DHT22;15261;50.356;10.340;2023-04-15T06:35:49;7.30;99.90
27922;DHT22;15261;50.356;10.340;2023-04-15T06:38:15;7.40;99.90
27922;DHT22;15261;50.356;10.340;2023-04-15T06:40:41;7.40;99.90
27922;DHT22;15261;50.356;10.340;2023-04-15T06:43:07;7.50;99.90
27922;DHT22;15261;50.356;10.340;2023-04-15T06:45:33;7.50;99.90
27922;DHT22;15261;50.356;10.340;2023-04-15T06:47:59;7.50;99.90
27922;DHT22;15261;50.356;10.340;2023-04-15T06:50:24;7.50;99.90
27922;DHT22;15261;50.356;10.340;2023-04-15T06:52:56;7.50;99.90
27922;DHT22;15261;50.356;10.340;2023-04-15T06:55:22;7.50;99.90
27922;DHT22;15261;50.356;10.340;2023-04-15T06:57:47;7.50;99.90
27922;DHT22;15261;50.356;10.340;2023-04-15T07:00:14;7.50;99.90
27922;DHT22;15261;50.356;10.340;2023-04-15T07:02:40;7.60;99.90
27922;DHT22;15261;50.356;10.340;2023-04-15T07:05:06;7.60;99.90
27922;DHT22;15261;50.356;10.340;2023-04-15T07:07:31;7.60;99.90
27922;DHT22;15261;50.356;10.340;2023-04-15T07:09:57;7.70;99.90
27922;DHT22;15261;50.356;10.340;2023-04-15T07:12:23;7.70;99.90
27922;DHT22;15261;50.356;10.340;2023-04-15T07:14:48;7.70;99.90
27922;DHT22;15261;50.356;10.340;2023-04-15T07:17:14;7.70;99.90
27922;DHT22;15261;50.356;10.340;2023-04-15T07:22:33;7.70;99.90
27922;DHT22;15261;50.356;10.340;2023-04-15T07:24:59;7.70;99.90
27922;DHT22;15261;50.356;10.340;2023-04-15T07:27:25;7.70;99.90
27922;DHT22;15261;50.356;10.340;2023-04-15T07:29:51;7.70;99.90
27922;DHT22;15261;50.356;10.340;2023-04-15T07:32:17;7.70;99.90
27922;DHT22;15261;50.356;10.340;2023-04-15T07:34:43;7.80;99.90
27922;DHT22;15261;50.356;10.340;2023-04-15T07:37:09;7.80;99.90
27922;DHT22;15261;50.356;10.340;2023-04-15T07:39:34;7.80;99.90
27922;DHT22;15261;50.356;10.340;2023-04-15T07:42:01;7.80;99.90
27922;DHT22;15261;50.356;10.340;2023-04-15T07:44:44;7.80;99.90
27922;DHT22;15261;50.356;10.340;2023-04-15T07:47:10;7.80;99.90
27922;DHT22;15261;50.356;10.340;2023-04-15T07:49:43;7.80;99.90
27922;DHT22;15261;50.356;10.340;2023-04-15T07:52:44;7.80;99.90
27922;DHT22;15261;50.356;10.340;2023-04-15T07:55:11;7.90;99.90
27922;DHT22;15261;50.356;10.340;2023-04-15T07:57:36;7.90;99.90
27922;DHT22;15261;50.356;10.340;2023-04-15T08:00:03;7.90;99.90
27922;DHT22;15261;50.356;10.340;2023-04-15T08:02:30;7.90;99.90
27922;DHT22;15261;50.356;10.340;2023-04-15T08:04:56;7.80;99.90
27922;DHT22;15261;50.356;10.340;2023-04-15T08:07:22;7.90;99.90
27922;DHT22;15261;50.356;10.340;2023-04-15T08:09:47;7.90;99.90
27922;DHT22;15261;50.356;10.340;2023-04-15T08:12:13;7.90;99.90
27922;DHT22;15261;50.356;10.340;2023-04-15T08:14:39;7.90;99.90
27922;DHT22;15261;50.356;10.340;2023-04-15T08:17:05;7.90;99.90
27922;DHT22;15261;50.356;10.340;2023-04-15T08:19:30;7.90;99.90
27922;DHT22;15261;50.356;10.340;2023-04-15T08:21:56;8.00;99.90
27922;DHT22;15261;50.356;10.340;2023-04-15T08:24:26;8.00;99.90
27922;DHT22;15261;50.356;10.340;2023-04-15T08:26:53;8.00;99.90
27922;DHT22;15261;50.356;10.340;2023-04-15T08:29:19;8.10;99.90
27922;DHT22;15261;50.356;10.340;2023-04-15T08:31:45;8.10;99.90
27922;DHT22;15261;50.356;10.340;2023-04-15T08:34:11;8.20;99.90
27922;DHT22;15261;50.356;10.340;2023-04-15T08:36:37;8.30;99.90
27922;DHT22;15261;50.356;10.340;2023-04-15T08:39:03;8.30;99.90
27922;DHT22;15261;50.356;10.340;2023-04-15T08:41:44;8.30;99.90
27922;DHT22;15261;50.356;10.340;2023-04-15T08:44:13;8.30;99.90
27922;DHT22;15261;50.356;10.340;2023-04-15T08:46:40;8.20;99.90
27922;DHT22;15261;50.356;10.340;2023-04-15T08:49:09;8.20;99.90
27922;DHT22;15261;50.356;10.340;2023-04-15T08:51:35;8.10;99.90
27922;DHT22;15261;50.356;10.340;2023-04-15T08:54:01;8.10;99.90
27922;DHT22;15261;50.356;10.340;2023-04-15T08:56:31;8.00;99.90
27922;DHT22;15261;50.356;10.340;2023-04-15T08:58:58;7.90;99.90
27922;DHT22;15261;50.356;10.340;2023-04-15T09:01:24;7.80;99.90
27922;DHT22;15261;50.356;10.340;2023-04-15T09:03:50;7.80;99.90
27922;DHT22;15261;50.356;10.340;2023-04-15T09:06:16;7.90;99.90
27922;DHT22;15261;50.356;10.340;2023-04-15T09:08:42;7.90;99.90
27922;DHT22;15261;50.356;10.340;2023-04-15T09:11:08;7.90;99.90
27922;DHT22;15261;50.356;10.340;2023-04-15T09:13:34;8.00;99.90
27922;DHT22;15261;50.356;10.340;2023-04-15T09:16:05;8.10;99.90
27922;DHT22;15261;50.356;10.340;2023-04-15T09:18:33;8.20;99.90
27922;DHT22;15261;50.356;10.340;2023-04-15T09:21:10;8.30;99.90
27922;DHT22;15261;50.356;10.340;2023-04-15T09:23:38;8.20;99.90
27922;DHT22;15261;50.356;10.340;2023-04-15T09:26:04;8.20;99.90
27922;DHT22;15261;50.356;10.340;2023-04-15T09:28:30;8.00;99.90
27922;DHT22;15261;50.356;10.340;2023-04-15T09:31:00;7.90;99.90
27922;DHT22;15261;50.356;10.340;2023-04-15T09:33:28;7.90;99.90
27922;DHT22;15261;50.356;10.340;2023-04-15T09:36:03;7.90;99.90
27922;DHT22;15261;50.356;10.340;2023-04-15T09:38:30;7.90;99.90
27922;DHT22;15261;50.356;10.340;2023-04-15T09:40:56;7.80;99.90
27922;DHT22;15261;50.356;10.340;2023-04-15T09:43:35;7.80;99.90
27922;DHT22;15261;50.356;10.340;2023-04-15T09:46:01;7.80;99.90
27922;DHT22;15261;50.356;10.340;2023-04-15T09:48:27;7.80;99.90
27922;DHT22;15261;50.356;10.340;2023-04-15T09:50:59;7.90;99.90
27922;DHT22;15261;50.356;10.340;2023-04-15T09:53:26;8.00;99.90
27922;DHT22;15261;50.356;10.340;2023-04-15T09:58:23;8.00;99.90
27922;DHT22;15261;50.356;10.340;2023-04-15T10:00:50;8.10;99.90
27922;DHT22;15261;50.356;10.340;2023-04-15T10:03:19;8.10;99.90
27922;DHT22;15261;50.356;10.340;2023-04-15T10:05:47;8.20;99.90
27922;DHT22;15261;50.356;10.340;2023-04-15T10:08:16;8.20;99.90
27922;DHT22;15261;50.356;10.340;2023-04-15T10:10:43;8.20;99.90
27922;DHT22;15261;50.356;10.340;2023-04-15T10:13:10;8.20;99.90
27922;DHT22;15261;50.356;10.340;2023-04-15T10:15:37;8.20;99.90
27922;DHT22;15261;50.356;10.340;2023-04-15T10:18:04;8.30;99.90
27922;DHT22;15261;50.356;10.340;2023-04-15T10:20:33;8.30;99.90
27922;DHT22;15261;50.356;10.340;2023-04-15T10:23:00;8.40;99.90
27922;DHT22;15261;50.356;10.340;2023-04-15T10:25:27;8.40;99.90
27922;DHT22;15261;50.356;10.340;2023-04-15T10:27:54;8.40;99.90
27922;DHT22;15261;50.356;10.340;2023-04-15T10:30:21;8.50;99.90
27922;DHT22;15261;50.356;10.340;2023-04-15T10:32:47;8.50;99.90
27922;DHT22;15261;50.356;10.340;2023-04-15T10:35:17;8.50;99.90
27922;DHT22;15261;50.356;10.340;2023-04-15T10:37:44;8.60;99.90
27922;DHT22;15261;50.356;10.340;2023-04-15T10:40:29;8.60;99.90
27922;DHT22;15261;50.356;10.340;2023-04-15T10:42:59;8.70;99.90
27922;DHT22;15261;50.356;10.340;2023-04-15T10:45:36;8.80;99.90
27922;DHT22;15261;50.356;10.340;2023-04-15T10:48:03;8.90;99.90
27922;DHT22;15261;50.356;10.340;2023-04-15T10:50:31;8.90;99.90
27922;DHT22;15261;50.356;10.340;2023-04-15T10:52:57;8.90;99.90
27922;DHT22;15261;50.356;10.340;2023-04-15T10:55:25;9.00;99.90
27922;DHT22;15261;50.356;10.340;2023-04-15T10:57:53;8.80;99.90
27922;DHT22;15261;50.356;10.340;2023-04-15T11:00:24;8.90;99.90
27922;DHT22;15261;50.356;10.340;2023-04-15T11:05:22;8.80;99.90
27922;DHT22;15261;50.356;10.340;2023-04-15T11:07:53;8.70;99.90
27922;DHT22;15261;50.356;10.340;2023-04-15T11:15:41;8.70;99.90
27922;DHT22;15261;50.356;10.340;2023-04-15T11:20:35;8.70;99.90
27922;DHT22;15261;50.356;10.340;2023-04-15T11:23:00;8.80;99.90
27922;DHT22;15261;50.356;10.340;2023-04-15T11:25:35;8.80;99.90
27922;DHT22;15261;50.356;10.340;2023-04-15T11:28:04;8.80;99.90
27922;DHT22;15261;50.356;10.340;2023-04-15T11:30:34;8.80;99.90
27922;DHT22;15261;50.356;10.340;2023-04-15T11:33:03;8.90;99.90
27922;DHT22;15261;50.356;10.340;2023-04-15T11:35:29;8.80;99.90
27922;DHT22;15261;50.356;10.340;2023-04-15T11:37:56;9.00;99.90
27922;DHT22;15261;50.356;10.340;2023-04-15T11:40:26;9.20;99.90
27922;DHT22;15261;50.356;10.340;2023-04-15T11:43:14;9.40;99.90
27922;DHT22;15261;50.356;10.340;2023-04-15T11:45:58;9.50;99.90
27922;DHT22;15261;50.356;10.340;2023-04-15T11:48:33;9.50;99.90
27922;DHT22;15261;50.356;10.340;2023-04-15T11:51:09;9.60;99.90
27922;DHT22;15261;50.356;10.340;2023-04-15T11:53:46;9.60;99.90
27922;DHT22;15261;50.356;10.340;2023-04-15T11:56:23;9.70;99.90
27922;DHT22;15261;50.356;10.340;2023-04-15T11:58:54;10.00;99.90
27922;DHT22;15261;50.356;10.340;2023-04-15T12:01:31;10.10;99.90
27922;DHT22;15261;50.356;10.340;2023-04-15T12:03:57;10.20;99.90
27922;DHT22;15261;50.356;10.340;2023-04-15T12:06:24;10.30;99.90
27922;DHT22;15261;50.356;10.340;2023-04-15T12:09:11;10.20;99.90
27922;DHT22;15261;50.356;10.340;2023-04-15T12:11:58;10.20;99.90
27922;DHT22;15261;50.356;10.340;2023-04-15T12:14:30;10.20;99.90
27922;DHT22;15261;50.356;10.340;2023-04-15T12:17:04;10.20;99.90
27922;DHT22;15261;50.356;10.340;2023-04-15T12:19:36;10.30;99.90
27922;DHT22;15261;50.356;10.340;2023-04-15T12:22:04;10.10;99.90
27922;DHT22;15261;50.356;10.340;2023-04-15T12:24:32;10.10;99.90
27922;DHT22;15261;50.356;10.340;2023-04-15T12:27:02;10.00;99.90
27922;DHT22;15261;50.356;10.340;2023-04-15T12:29:28;9.80;99.90
27922;DHT22;15261;50.356;10.340;2023-04-15T12:31:57;9.70;99.90
27922;DHT22;15261;50.356;10.340;2023-04-15T12:34:29;9.70;99.90
27922;DHT22;15261;50.356;10.340;2023-04-15T12:36:56;9.60;99.90
27922;DHT22;15261;50.356;10.340;2023-04-15T12:39:27;9.60;99.90
27922;DHT22;15261;50.356;10.340;2023-04-15T12:41:54;9.50;99.90
27922;DHT22;15261;50.356;10.340;2023-04-15T12:44:21;9.50;99.90
27922;DHT22;15261;50.356;10.340;2023-04-15T12:46:49;9.60;99.90
27922;DHT22;15261;50.356;10.340;2023-04-15T12:49:15;9.60;99.90
27922;DHT22;15261;50.356;10.340;2023-04-15T12:51:43;9.50;99.90
27922;DHT22;15261;50.356;10.340;2023-04-15T12:54:09;9.50;99.90
27922;DHT22;15261;50.356;10.340;2023-04-15T12:56:35;9.50;99.90
27922;DHT22;15261;50.356;10.340;2023-04-15T12:59:01;9.40;99.90
27922;DHT22;15261;50.356;10.340;2023-04-15T13:01:27;9.30;99.90
27922;DHT22;15261;50.356;10.340;2023-04-15T13:03:53;9.20;99.90
27922;DHT22;15261;50.356;10.340;2023-04-15T13:06:18;9.20;99.90
27922;DHT22;15261;50.356;10.340;2023-04-15T13:08:44;9.10;99.90
27922;DHT22;15261;50.356;10.340;2023-04-15T13:11:10;9.10;99.90
27922;DHT22;15261;50.356;10.340;2023-04-15T13:13:39;9.20;99.90
27922;DHT22;15261;50.356;10.340;2023-04-15T13:16:06;9.30;99.90
27922;DHT22;15261;50.356;10.340;2023-04-15T13:18:34;9.30;99.90
27922;DHT22;15261;50.356;10.340;2023-04-15T13:21:00;9.30;99.90
27922;DHT22;15261;50.356;10.340;2023-04-15T13:23:26;9.20;99.90
27922;DHT22;15261;50.356;10.340;2023-04-15T13:25:52;9.20;99.90
27922;DHT22;15261;50.356;10.340;2023-04-15T13:28:17;9.10;99.90
27922;DHT22;15261;50.356;10.340;2023-04-15T13:30:43;9.10;99.90
27922;DHT22;15261;50.356;10.340;2023-04-15T13:33:15;9.10;99.90
27922;DHT22;15261;50.356;10.340;2023-04-15T13:36:01;9.10;99.90
27922;DHT22;15261;50.356;10.340;2023-04-15T13:38:27;9.20;99.90
27922;DHT22;15261;50.356;10.340;2023-04-15T13:40:52;9.10;99.90
27922;DHT22;15261;50.356;10.340;2023-04-15T13:43:18;9.20;99.90
27922;DHT22;15261;50.356;10.340;2023-04-15T13:45:45;9.10;99.90
27922;DHT22;15261;50.356;10.340;2023-04-15T13:48:11;9.20;99.90
27922;DHT22;15261;50.356;10.340;2023-04-15T13:50:36;9.20;99.90
27922;DHT22;15261;50.356;10.340;2023-04-15T13:53:02;9.20;99.90
27922;DHT22;15261;50.356;10.340;2023-04-15T13:55:27;9.10;99.90
27922;DHT22;15261;50.356;10.340;2023-04-15T13:57:53;9.20;99.90
27922;DHT22;15261;50.356;10.340;2023-04-15T14:00:19;9.20;99.90
27922;DHT22;15261;50.356;10.340;2023-04-15T14:02:44;9.20;99.90
27922;DHT22;15261;50.356;10.340;2023-04-15T14:05:10;9.30;99.90
27922;DHT22;15261;50.356;10.340;2023-04-15T14:07:36;9.40;99.90
27922;DHT22;15261;50.356;10.340;2023-04-15T14:10:02;9.30;99.90
27922;DHT22;15261;50.356;10.340;2023-04-15T14:12:28;9.30;99.90
27922;DHT22;15261;50.356;10.340;2023-04-15T14:14:53;9.20;99.90
27922;DHT22;15261;50.356;10.340;2023-04-15T14:17:19;9.30;99.90
27922;DHT22;15261;50.356;10.340;2023-04-15T14:19:45;9.30;99.90
27922;DHT22;15261;50.356;10.340;2023-04-15T14:22:11;9.30;99.90
27922;DHT22;15261;50.356;10.340;2023-04-15T14:24:37;9.30;99.90
27922;DHT22;15261;50.356;10.340;2023-04-15T14:27:02;9.20;99.90
27922;DHT22;15261;50.356;10.340;2023-04-15T14:29:28;9.30;99.90
27922;DHT22;15261;50.356;10.340;2023-04-15T14:31:54;9.30;99.90
27922;DHT22;15261;50.356;10.340;2023-04-15T14:34:21;9.20;99.90
27922;DHT22;15261;50.356;10.340;2023-04-15T14:36:50;9.20;99.90
27922;DHT22;15261;50.356;10.340;2023-04-15T14:39:15;9.20;99.90
27922;DHT22;15261;50.356;10.340;2023-04-15T14:41:41;9.30;99.90
27922;DHT22;15261;50.356;10.340;2023-04-15T14:44:07;9.30;99.90
27922;DHT22;15261;50.356;10.340;2023-04-15T14:46:34;9.30;99.90
27922;DHT22;15261;50.356;10.340;2023-04-15T14:48:59;9.30;99.90
27922;DHT22;15261;50.356;10.340;2023-04-15T14:51:25;9.30;99.90
27922;DHT22;15261;50.356;10.340;2023-04-15T14:53:51;9.40;99.90
27922;DHT22;15261;50.356;10.340;2023-04-15T14:56:16;9.40;99.90
27922;DHT22;15261;50.356;10.340;2023-04-15T14:58:42;9.50;99.90
27922;DHT22;15261;50.356;10.340;2023-04-15T15:01:08;9.50;99.90
27922;DHT22;15261;50.356;10.340;2023-04-15T15:03:34;9.50;99.90
27922;DHT22;15261;50.356;10.340;2023-04-15T15:06:00;9.50;99.90
27922;DHT22;15261;50.356;10.340;2023-04-15T15:08:26;9.50;99.90
27922;DHT22;15261;50.356;10.340;2023-04-15T15:10:51;9.50;99.90
27922;DHT22;15261;50.356;10.340;2023-04-15T15:13:17;9.50;99.90
27922;DHT22;15261;50.356;10.340;2023-04-15T15:15:43;9.40;99.90
27922;DHT22;15261;50.356;10.340;2023-04-15T15:18:09;9.30;99.90
27922;DHT22;15261;50.356;10.340;2023-04-15T15:20:35;9.30;99.90
27922;DHT22;15261;50.356;10.340;2023-04-15T15:23:01;9.30;99.90
27922;DHT22;15261;50.356;10.340;2023-04-15T15:25:27;9.30;99.90
27922;DHT22;15261;50.356;10.340;2023-04-15T15:27:53;9.30;99.90
27922;DHT22;15261;50.356;10.340;2023-04-15T15:30:18;9.40;99.90
27922;DHT22;15261;50.356;10.340;2023-04-15T15:32:44;9.50;99.90
27922;DHT22;15261;50.356;10.340;2023-04-15T15:35:10;9.50;99.90
27922;DHT22;15261;50.356;10.340;2023-04-15T15:37:36;9.70;99.90
27922;DHT22;15261;50.356;10.340;2023-04-15T15:40:06;9.70;99.90
27922;DHT22;15261;50.356;10.340;2023-04-15T15:42:33;9.60;99.90
27922;DHT22;15261;50.356;10.340;2023-04-15T15:44:59;9.50;99.90
27922;DHT22;15261;50.356;10.340;2023-04-15T15:47:25;9.60;99.90
27922;DHT22;15261;50.356;10.340;2023-04-15T15:49:51;9.60;99.90
27922;DHT22;15261;50.356;10.340;2023-04-15T15:52:17;9.70;99.90
27922;DHT22;15261;50.356;10.340;2023-04-15T15:54:43;9.70;99.90
27922;DHT22;15261;50.356;10.340;2023-04-15T15:57:09;9.70;99.90
27922;DHT22;15261;50.356;10.340;2023-04-15T15:59:36;9.60;99.90
27922;DHT22;15261;50.356;10.340;2023-04-15T16:02:09;9.50;99.90
27922;DHT22;15261;50.356;10.340;2023-04-15T16:04:36;9.40;99.90
27922;DHT22;15261;50.356;10.340;2023-04-15T16:07:02;9.30;99.90
27922;DHT22;15261;50.356;10.340;2023-04-15T16:09:27;9.20;99.90
27922;DHT22;15261;50.356;10.340;2023-04-15T16:11:53;9.10;99.90
27922;DHT22;15261;50.356;10.340;2023-04-15T16:14:20;9.00;99.90
27922;DHT22;15261;50.356;10.340;2023-04-15T16:16:45;9.00;99.90
27922;DHT22;15261;50.356;10.340;2023-04-15T16:19:11;8.90;99.90
27922;DHT22;15261;50.356;10.340;2023-04-15T16:21:37;8.90;99.90
27922;DHT22;15261;50.356;10.340;2023-04-15T16:24:06;8.80;99.90